createdAt,value
2022-10-19T00:00:05.739Z,3.60
2022-10-19T00:02:36.712Z,2.90
2022-10-19T00:05:04.907Z,2.90
2022-10-19T00:07:33.094Z,2.70
2022-10-19T00:10:01.188Z,2.63
2022-10-19T00:12:29.159Z,2.83
2022-10-19T00:14:58.750Z,3.27
2022-10-19T00:17:26.777Z,2.93
2022-10-19T00:19:54.715Z,3.20
2022-10-19T00:22:22.629Z,2.40
2022-10-19T00:24:50.564Z,3.00
2022-10-19T00:27:18.874Z,2.47
2022-10-19T00:29:46.747Z,2.63
2022-10-19T00:32:15.988Z,2.70
2022-10-19T00:34:44.020Z,2.77
2022-10-19T00:37:12.056Z,3.00
2022-10-19T00:39:40.379Z,2.47
2022-10-19T00:42:11.617Z,10.00
2022-10-19T00:45:15.520Z,4.57
2022-10-19T00:47:46.133Z,2.87
2022-10-19T00:50:17.280Z,2.90
2022-10-19T00:52:45.287Z,4.70
2022-10-19T00:55:13.931Z,3.57
2022-10-19T00:57:42.242Z,3.13
2022-10-19T01:00:10.933Z,2.43
2022-10-19T01:02:39.077Z,3.23
2022-10-19T01:05:09.756Z,3.57
2022-10-19T01:07:37.717Z,3.03
2022-10-19T01:10:06.754Z,3.53
2022-10-19T01:12:58.687Z,3.63
2022-10-19T01:15:38.593Z,7.50
2022-10-19T01:18:13.346Z,4.87
2022-10-19T01:21:17.425Z,3.53
2022-10-19T01:24:12.142Z,3.73
2022-10-19T01:27:07.220Z,3.20
2022-10-19T01:30:05.589Z,11.20
2022-10-19T01:32:43.227Z,11.43
2022-10-19T01:35:14.868Z,6.33
2022-10-19T01:37:50.661Z,4.60
2022-10-19T01:40:25.932Z,3.00
2022-10-19T01:43:03.655Z,2.57
2022-10-19T01:45:39.624Z,3.10
2022-10-19T01:48:13.314Z,3.47
2022-10-19T01:50:46.822Z,2.60
2022-10-19T01:53:18.263Z,3.47
2022-10-19T01:55:48.751Z,5.43
2022-10-19T01:58:22.287Z,4.83
2022-10-19T02:00:53.576Z,3.50
2022-10-19T02:03:24.271Z,11.37
2022-10-19T02:05:54.000Z,3.50
2022-10-19T02:08:27.520Z,2.73
2022-10-19T02:10:56.923Z,2.17
2022-10-19T02:13:25.747Z,3.83
2022-10-19T02:15:57.409Z,2.90
2022-10-19T02:18:32.409Z,4.67
2022-10-19T02:21:02.173Z,7.67
2022-10-19T02:23:30.167Z,4.03
2022-10-19T02:25:58.796Z,2.00
2022-10-19T02:28:29.050Z,2.17
2022-10-19T02:30:57.943Z,2.10
2022-10-19T02:33:28.403Z,2.23
2022-10-19T02:35:56.785Z,2.20
2022-10-19T02:38:25.819Z,2.60
2022-10-19T02:41:00.916Z,2.00
2022-10-19T02:43:30.993Z,2.20
2022-10-19T02:46:02.764Z,1.97
2022-10-19T02:48:34.199Z,3.03
2022-10-19T02:51:02.161Z,2.33
2022-10-19T02:53:30.183Z,11.50
2022-10-19T02:55:58.234Z,4.60
2022-10-19T02:58:26.259Z,3.10
2022-10-19T03:00:54.351Z,9.53
2022-10-19T03:03:22.327Z,13.10
2022-10-19T03:05:52.200Z,13.50
2022-10-19T03:08:20.207Z,5.83
2022-10-19T03:10:48.175Z,3.43
2022-10-19T03:13:16.145Z,2.63
2022-10-19T03:15:44.105Z,2.70
2022-10-19T03:18:12.051Z,2.50
2022-10-19T03:20:39.993Z,2.30
2022-10-19T03:23:09.248Z,2.00
2022-10-19T03:25:37.237Z,2.10
2022-10-19T03:28:05.244Z,3.40
2022-10-19T03:30:33.148Z,2.30
2022-10-19T03:33:01.052Z,2.37
2022-10-19T03:35:28.995Z,2.40
2022-10-19T03:37:56.903Z,2.83
2022-10-19T03:40:26.346Z,3.10
2022-10-19T03:42:54.397Z,3.37
2022-10-19T03:45:22.318Z,3.23
2022-10-19T03:47:50.743Z,3.10
2022-10-19T03:50:20.539Z,4.17
2022-10-19T03:52:49.799Z,2.93
2022-10-19T03:55:18.156Z,4.93
2022-10-19T03:57:47.444Z,3.33
2022-10-19T04:00:16.160Z,3.90
2022-10-19T04:02:44.011Z,3.73
2022-10-19T04:05:11.951Z,3.97
2022-10-19T04:07:39.865Z,3.90
2022-10-19T04:10:08.694Z,3.37
2022-10-19T04:12:36.612Z,4.67
2022-10-19T04:15:06.543Z,2.80
2022-10-19T04:17:34.832Z,3.60
2022-10-19T04:20:02.946Z,3.10
2022-10-19T04:22:30.861Z,3.30
2022-10-19T04:24:58.773Z,3.23
2022-10-19T04:27:26.685Z,3.10
2022-10-19T04:29:54.605Z,2.80
2022-10-19T04:32:23.916Z,2.50
2022-10-19T04:34:51.799Z,2.93
2022-10-19T04:37:19.720Z,3.80
2022-10-19T04:39:47.668Z,4.10
2022-10-19T04:42:15.607Z,3.90
2022-10-19T04:44:43.510Z,3.87
2022-10-19T04:47:11.554Z,3.23
2022-10-19T04:49:40.823Z,3.73
2022-10-19T04:52:08.759Z,4.00
2022-10-19T04:54:36.684Z,3.83
2022-10-19T04:57:05.173Z,4.00
2022-10-19T04:59:33.237Z,3.67
2022-10-19T05:02:01.137Z,4.43
2022-10-19T05:04:29.058Z,4.20
2022-10-19T05:06:58.316Z,4.50
2022-10-19T05:09:26.607Z,11.10
2022-10-19T05:11:54.570Z,8.40
2022-10-19T05:14:22.744Z,8.27
2022-10-19T05:16:50.685Z,5.90
2022-10-19T05:19:18.984Z,6.87
2022-10-19T05:21:47.019Z,5.57
2022-10-19T05:24:16.395Z,5.90
2022-10-19T05:26:44.406Z,5.17
2022-10-19T05:29:13.558Z,5.53
2022-10-19T05:31:41.977Z,5.90
2022-10-19T05:34:09.924Z,7.27
2022-10-19T05:36:40.098Z,11.43
2022-10-19T05:39:09.757Z,10.23
2022-10-19T05:41:39.082Z,5.97
2022-10-19T05:44:07.563Z,6.20
2022-10-19T05:46:35.683Z,5.00
2022-10-19T05:49:03.596Z,7.30
2022-10-19T05:51:31.577Z,6.93
2022-10-19T05:53:59.516Z,6.60
2022-10-19T05:56:29.389Z,6.80
2022-10-19T05:59:00.746Z,6.33
2022-10-19T06:01:29.970Z,7.00
2022-10-19T06:04:00.423Z,7.53
2022-10-19T06:06:29.116Z,8.20
2022-10-19T06:08:58.944Z,8.50
2022-10-19T06:11:28.768Z,8.67
2022-10-19T06:14:00.789Z,7.30
2022-10-19T06:16:29.868Z,8.53
2022-10-19T06:18:58.544Z,10.50
2022-10-19T06:21:28.249Z,9.50
2022-10-19T06:23:57.724Z,9.53
2022-10-19T06:26:26.738Z,11.40
2022-10-19T06:29:00.389Z,10.50
2022-10-19T06:31:29.041Z,11.03
2022-10-19T06:33:57.163Z,12.50
2022-10-19T06:36:26.970Z,12.70
2022-10-19T06:38:56.488Z,12.40
2022-10-19T06:41:24.790Z,14.20
2022-10-19T06:43:54.083Z,14.43
2022-10-19T06:46:25.312Z,13.20
2022-10-19T06:48:55.129Z,14.43
2022-10-19T06:51:24.478Z,12.87
2022-10-19T06:53:56.629Z,12.10
2022-10-19T06:56:26.311Z,13.90
2022-10-19T06:58:54.920Z,12.23
2022-10-19T07:01:24.604Z,11.93
2022-10-19T07:03:53.680Z,14.10
2022-10-19T07:06:21.973Z,17.73
2022-10-19T07:08:49.977Z,17.20
2022-10-19T07:11:20.288Z,15.63
2022-10-19T07:13:48.187Z,16.93
2022-10-19T07:16:20.917Z,20.17
2022-10-19T07:18:52.480Z,12.80
2022-10-19T07:21:22.428Z,13.13
2022-10-19T07:23:50.388Z,11.73
2022-10-19T07:26:21.371Z,13.63
2022-10-19T07:28:50.200Z,13.83
2022-10-19T07:31:21.158Z,12.70
2022-10-19T07:33:53.142Z,13.27
2022-10-19T07:36:21.106Z,14.90
2022-10-19T07:38:49.045Z,15.27
2022-10-19T07:41:18.492Z,14.20
2022-10-19T07:43:48.317Z,14.43
2022-10-19T07:46:18.163Z,15.40
2022-10-19T07:48:46.558Z,14.20
2022-10-19T07:51:18.323Z,15.30
2022-10-19T07:53:47.229Z,16.07
2022-10-19T07:56:16.946Z,17.30
2022-10-19T07:58:45.306Z,14.47
2022-10-19T08:01:14.714Z,23.67
2022-10-19T08:06:32.733Z,16.27
2022-10-19T08:09:00.863Z,18.73
2022-10-19T08:11:32.473Z,17.30
2022-10-19T08:14:02.652Z,18.10
2022-10-19T08:16:33.658Z,20.73
2022-10-19T08:19:04.288Z,16.50
2022-10-19T08:21:33.945Z,16.27
2022-10-19T08:24:02.128Z,19.00
2022-10-19T08:26:30.887Z,19.50
2022-10-19T08:29:02.025Z,17.23
2022-10-19T08:31:29.969Z,16.53
2022-10-19T08:33:58.284Z,15.70
2022-10-19T08:36:27.563Z,14.53
2022-10-19T08:38:56.823Z,14.07
2022-10-19T08:41:33.056Z,13.90
2022-10-19T08:44:24.828Z,15.43
2022-10-19T08:47:02.540Z,13.43
2022-10-19T08:49:32.775Z,14.83
2022-10-19T08:52:03.832Z,13.77
2022-10-19T08:54:44.303Z,14.93
2022-10-19T08:57:25.014Z,15.93
2022-10-19T08:59:59.806Z,15.90
2022-10-19T09:02:41.921Z,16.47
2022-10-19T09:05:17.482Z,14.43
2022-10-19T09:07:54.830Z,16.37
2022-10-19T09:10:28.248Z,15.73
2022-10-19T09:13:00.197Z,17.77
2022-10-19T09:15:34.175Z,16.50
2022-10-19T09:18:02.442Z,15.87
2022-10-19T09:20:35.648Z,15.47
2022-10-19T09:23:11.115Z,16.70
2022-10-19T09:25:42.686Z,17.43
2022-10-19T09:28:31.398Z,17.23
2022-10-19T09:31:05.338Z,15.27
2022-10-19T09:33:36.958Z,15.10
2022-10-19T09:36:07.532Z,13.20
2022-10-19T09:38:35.642Z,12.50
2022-10-19T09:41:18.654Z,14.30
2022-10-19T09:43:53.009Z,13.80
2022-10-19T09:46:31.703Z,13.00
2022-10-19T09:49:02.405Z,13.83
2022-10-19T09:51:41.809Z,12.87
2022-10-19T09:54:27.481Z,13.90
2022-10-19T09:56:57.796Z,14.63
2022-10-19T09:59:30.888Z,14.87
2022-10-19T10:02:16.391Z,14.77
2022-10-19T10:04:47.959Z,16.80
2022-10-19T10:07:18.890Z,14.00
2022-10-19T10:09:47.265Z,13.40
2022-10-19T10:12:17.236Z,14.93
2022-10-19T10:14:45.851Z,15.50
2022-10-19T10:17:17.719Z,13.93
2022-10-19T10:20:03.896Z,15.63
2022-10-19T10:22:33.936Z,18.30
2022-10-19T10:25:03.114Z,15.80
2022-10-19T10:27:36.311Z,15.20
2022-10-19T10:30:09.203Z,15.27
2022-10-19T10:32:42.205Z,14.40
2022-10-19T10:35:20.505Z,15.37
2022-10-19T10:37:49.057Z,14.40
2022-10-19T10:40:23.763Z,14.53
2022-10-19T10:42:55.363Z,14.70
2022-10-19T10:45:27.201Z,14.10
2022-10-19T10:47:55.464Z,14.80
2022-10-19T10:50:25.863Z,13.83
2022-10-19T10:53:02.487Z,14.83
2022-10-19T10:55:31.817Z,15.50
2022-10-19T10:58:18.529Z,15.60
2022-10-19T11:00:47.731Z,16.70
2022-10-19T11:03:22.903Z,17.20
2022-10-19T11:05:55.402Z,15.80
2022-10-19T11:08:28.519Z,17.30
2022-10-19T11:11:01.769Z,14.17
2022-10-19T11:13:38.675Z,16.83
2022-10-19T11:16:13.541Z,16.43
2022-10-19T11:18:45.429Z,15.50
2022-10-19T11:21:18.171Z,17.03
2022-10-19T11:23:56.133Z,15.80
2022-10-19T11:26:42.331Z,16.70
2022-10-19T11:29:26.340Z,16.40
2022-10-19T11:31:56.277Z,16.17
2022-10-19T11:34:45.776Z,19.90
2022-10-19T11:37:24.976Z,16.70
2022-10-19T11:40:05.325Z,17.77
2022-10-19T11:42:50.600Z,19.00
2022-10-19T11:45:32.889Z,18.53
2022-10-19T11:48:16.475Z,17.67
2022-10-19T11:50:54.236Z,18.40
2022-10-19T11:53:35.269Z,19.80
2022-10-19T11:56:09.750Z,20.00
2022-10-19T11:59:01.725Z,17.60
2022-10-19T12:01:48.424Z,16.83
2022-10-19T12:04:43.831Z,14.53
2022-10-19T12:07:33.824Z,16.40
2022-10-19T12:10:08.421Z,15.53
2022-10-19T12:12:39.627Z,14.80
2022-10-19T12:15:26.161Z,16.13
2022-10-19T12:18:00.532Z,14.07
2022-10-19T12:20:33.482Z,15.30
2022-10-19T12:23:15.572Z,20.10
2022-10-19T12:25:46.372Z,20.23
2022-10-19T12:28:22.462Z,17.13
2022-10-19T12:30:50.869Z,18.77
2022-10-19T12:33:24.442Z,47.87
2022-10-19T12:36:00.734Z,37.50
2022-10-19T12:38:40.961Z,41.43
2022-10-19T12:41:23.320Z,29.97
2022-10-19T12:44:04.104Z,18.17
2022-10-19T12:46:39.639Z,18.20
2022-10-19T12:49:38.398Z,14.60
2022-10-19T12:52:08.238Z,14.50
2022-10-19T12:54:38.789Z,13.70
2022-10-19T12:57:28.441Z,11.30
2022-10-19T13:00:01.610Z,12.63
2022-10-19T13:05:03.152Z,11.97
2022-10-19T13:07:34.368Z,11.50
2022-10-19T13:10:05.355Z,15.20
2022-10-19T13:12:45.861Z,14.73
2022-10-19T13:15:57.401Z,15.70
2022-10-19T13:19:08.293Z,14.63
2022-10-19T13:21:49.319Z,14.40
2022-10-19T13:24:35.806Z,11.90
2022-10-19T13:27:38.847Z,13.00
2022-10-19T13:30:56.894Z,11.73
2022-10-19T13:33:47.900Z,13.40
2022-10-19T13:36:16.240Z,15.00
2022-10-19T13:38:47.290Z,12.17
2022-10-19T13:41:21.857Z,15.10
2022-10-19T13:44:04.746Z,15.23
2022-10-19T13:46:54.550Z,10.83
2022-10-19T13:49:49.804Z,12.87
2022-10-19T13:52:43.509Z,17.00
2022-10-19T13:56:03.436Z,12.80
2022-10-19T13:59:08.281Z,12.73
2022-10-19T14:01:51.088Z,12.73
2022-10-19T14:04:31.363Z,14.80
2022-10-19T14:07:06.370Z,12.80
2022-10-19T14:10:00.141Z,13.47
2022-10-19T14:12:31.355Z,12.87
2022-10-19T14:15:00.360Z,14.37
2022-10-19T14:17:33.894Z,12.27
2022-10-19T14:20:03.993Z,11.30
2022-10-19T14:22:33.995Z,14.43
2022-10-19T14:25:04.487Z,18.90
2022-10-19T14:27:35.702Z,15.93
2022-10-19T14:30:05.187Z,13.93
2022-10-19T14:32:35.004Z,13.77
2022-10-19T14:35:07.533Z,12.83
2022-10-19T14:37:37.442Z,12.50
2022-10-19T14:40:09.171Z,13.03
2022-10-19T14:42:44.302Z,33.67
2022-10-19T14:45:18.348Z,31.67
2022-10-19T14:48:01.070Z,26.90
2022-10-19T14:50:40.491Z,15.50
2022-10-19T14:53:22.506Z,14.50
2022-10-19T14:55:53.121Z,13.57
2022-10-19T14:58:25.363Z,13.50
2022-10-19T15:00:54.799Z,11.83
2022-10-19T15:03:26.473Z,12.70
2022-10-19T15:05:57.700Z,12.13
2022-10-19T15:08:33.747Z,12.20
2022-10-19T15:11:01.964Z,11.53
2022-10-19T15:13:34.590Z,12.00
2022-10-19T15:16:02.695Z,12.70
2022-10-19T15:18:49.594Z,12.13
2022-10-19T15:21:20.895Z,10.30
2022-10-19T15:23:50.209Z,12.20
2022-10-19T15:26:21.346Z,11.87
2022-10-19T15:28:50.730Z,13.50
2022-10-19T15:31:20.795Z,11.70
2022-10-19T15:33:51.262Z,13.40
2022-10-19T15:36:20.861Z,11.90
2022-10-19T15:38:50.751Z,13.10
2022-10-19T15:41:28.168Z,15.27
2022-10-19T15:43:59.811Z,14.17
2022-10-19T15:46:32.090Z,13.93
2022-10-19T15:49:01.974Z,14.93
2022-10-19T15:51:53.926Z,13.27
2022-10-19T15:54:23.800Z,12.80
2022-10-19T15:56:54.287Z,13.90
2022-10-19T15:59:24.181Z,13.13
2022-10-19T16:01:54.953Z,14.20
2022-10-19T16:04:23.985Z,17.00
2022-10-19T16:06:52.046Z,15.70
2022-10-19T16:09:22.377Z,17.20
2022-10-19T16:11:56.304Z,16.07
2022-10-19T16:14:26.286Z,17.07
2022-10-19T16:16:54.458Z,17.50
2022-10-19T16:19:22.328Z,19.70
2022-10-19T16:21:50.561Z,18.80
2022-10-19T16:24:18.485Z,19.80
2022-10-19T16:26:46.381Z,18.50
2022-10-19T16:29:14.332Z,19.00
2022-10-19T16:31:43.566Z,19.50
2022-10-19T16:34:11.499Z,26.50
2022-10-19T16:36:39.394Z,22.93
2022-10-19T16:39:07.401Z,24.10
2022-10-19T16:44:12.085Z,20.67
2022-10-19T16:46:40.308Z,20.37
2022-10-19T16:49:09.642Z,21.00
2022-10-19T16:51:38.440Z,17.90
2022-10-19T16:54:07.962Z,16.23
2022-10-19T16:56:36.773Z,20.03
2022-10-19T16:59:06.661Z,20.93
2022-10-19T17:01:35.914Z,23.83
2022-10-19T17:04:03.917Z,29.20
2022-10-19T17:06:34.850Z,29.30
2022-10-19T17:11:51.266Z,81.53
2022-10-19T17:14:19.570Z,63.67
2022-10-19T17:16:47.610Z,29.43
2022-10-19T17:19:15.649Z,17.83
2022-10-19T17:21:45.024Z,18.27
2022-10-19T17:24:21.163Z,19.70
2022-10-19T17:26:51.016Z,17.00
2022-10-19T17:29:19.787Z,16.60
2022-10-19T17:31:48.073Z,16.97
2022-10-19T17:34:16.371Z,16.20
2022-10-19T17:36:46.800Z,17.00
2022-10-19T17:39:17.895Z,17.40
2022-10-19T17:41:46.830Z,17.07
2022-10-19T17:44:15.089Z,20.60
2022-10-19T17:46:43.280Z,24.53
2022-10-19T17:49:11.507Z,21.87
2022-10-19T17:51:40.307Z,19.30
2022-10-19T17:54:11.851Z,19.27
2022-10-19T17:56:40.032Z,19.87
2022-10-19T17:59:09.266Z,19.83
2022-10-19T18:01:37.965Z,21.70
2022-10-19T18:04:06.205Z,21.37
2022-10-19T18:06:35.885Z,20.00
2022-10-19T18:09:06.642Z,18.60
2022-10-19T18:11:38.561Z,17.80
2022-10-19T18:14:08.856Z,19.30
2022-10-19T18:16:39.512Z,19.30
2022-10-19T18:19:08.976Z,19.60
2022-10-19T18:21:39.502Z,18.17
2022-10-19T18:24:12.816Z,20.63
2022-10-19T18:26:44.725Z,18.20
2022-10-19T18:29:14.542Z,18.30
2022-10-19T18:31:44.601Z,18.13
2022-10-19T18:34:15.379Z,19.10
2022-10-19T18:36:44.040Z,18.70
2022-10-19T18:39:14.217Z,15.73
2022-10-19T18:41:42.499Z,15.53
2022-10-19T18:44:13.966Z,15.07
2022-10-19T18:46:42.153Z,14.27
2022-10-19T18:49:12.466Z,13.43
2022-10-19T18:51:40.761Z,13.30
2022-10-19T18:54:09.178Z,14.77
2022-10-19T18:56:37.377Z,13.10
2022-10-19T18:59:06.143Z,12.03
2022-10-19T19:01:35.505Z,12.07
2022-10-19T19:04:09.079Z,12.10
2022-10-19T19:06:38.631Z,13.13
2022-10-19T19:09:08.680Z,12.43
2022-10-19T19:11:39.164Z,13.10
2022-10-19T19:14:09.440Z,13.43
2022-10-19T19:16:40.629Z,12.40
2022-10-19T19:19:09.603Z,12.50
2022-10-19T19:21:38.325Z,11.60
2022-10-19T19:24:08.110Z,12.83
2022-10-19T19:26:39.484Z,11.77
2022-10-19T19:29:09.613Z,12.17
2022-10-19T19:31:39.612Z,12.70
2022-10-19T19:34:09.327Z,13.37
2022-10-19T19:36:38.170Z,13.90
2022-10-19T19:39:06.425Z,13.60
2022-10-19T19:41:34.390Z,13.43
2022-10-19T19:44:02.384Z,12.67
2022-10-19T19:46:30.532Z,12.87
2022-10-19T19:49:04.689Z,13.07
2022-10-19T19:51:33.779Z,13.10
2022-10-19T19:54:01.751Z,12.73
2022-10-19T19:56:29.874Z,12.03
2022-10-19T19:59:00.043Z,12.53
2022-10-19T20:01:28.447Z,11.80
2022-10-19T20:03:59.150Z,12.07
2022-10-19T20:06:28.607Z,12.10
2022-10-19T20:08:57.316Z,11.27
2022-10-19T20:11:27.300Z,10.93
2022-10-19T20:13:55.595Z,11.00
2022-10-19T20:16:29.223Z,10.83
2022-10-19T20:19:00.955Z,10.60
2022-10-19T20:21:31.793Z,10.73
2022-10-19T20:24:00.130Z,10.30
2022-10-19T20:26:29.534Z,11.40
2022-10-19T20:28:58.273Z,11.33
2022-10-19T20:33:54.574Z,11.07
2022-10-19T20:36:24.749Z,13.23
2022-10-19T20:38:56.089Z,15.50
2022-10-19T20:41:26.260Z,15.80
2022-10-19T20:43:55.194Z,14.40
2022-10-19T20:46:25.188Z,13.50
2022-10-19T20:48:54.701Z,11.07
2022-10-19T20:51:27.624Z,11.10
2022-10-19T20:54:01.297Z,11.57
2022-10-19T20:56:31.716Z,10.77
2022-10-19T20:59:04.473Z,10.97
2022-10-19T21:01:34.694Z,13.33
2022-10-19T21:04:04.732Z,12.50
2022-10-19T21:06:34.435Z,11.60
2022-10-19T21:09:04.112Z,10.20
2022-10-19T21:11:34.121Z,9.40
2022-10-19T21:14:04.582Z,11.20
2022-10-19T21:16:34.003Z,10.90
2022-10-19T21:19:03.879Z,9.70
2022-10-19T21:21:33.791Z,9.93
2022-10-19T21:24:06.233Z,8.70
2022-10-19T21:26:36.453Z,9.70
2022-10-19T21:29:05.554Z,10.10
2022-10-19T21:31:33.529Z,8.73
2022-10-19T21:34:05.069Z,9.10
2022-10-19T21:36:33.099Z,9.03
2022-10-19T21:39:01.258Z,8.23
2022-10-19T21:41:30.936Z,9.43
2022-10-19T21:43:59.196Z,9.60
2022-10-19T21:46:27.512Z,8.77
2022-10-19T21:48:56.738Z,8.37
2022-10-19T21:51:32.959Z,7.70
2022-10-19T21:54:01.475Z,9.30
2022-10-19T21:56:30.800Z,8.53
2022-10-19T21:58:59.087Z,8.13
2022-10-19T22:01:29.478Z,9.30
2022-10-19T22:03:58.301Z,8.93
2022-10-19T22:06:27.918Z,9.00
2022-10-19T22:08:56.064Z,9.20
2022-10-19T22:11:24.634Z,7.70
2022-10-19T22:13:56.694Z,9.00
2022-10-19T22:16:26.008Z,7.47
2022-10-19T22:18:54.613Z,8.30
2022-10-19T22:21:24.241Z,7.50
2022-10-19T22:23:53.512Z,8.50
2022-10-19T22:26:23.429Z,8.07
2022-10-19T22:28:51.747Z,8.67
2022-10-19T22:31:21.312Z,8.77
2022-10-19T22:33:49.643Z,8.70
2022-10-19T22:36:18.388Z,8.80
2022-10-19T22:38:46.365Z,7.33
2022-10-19T22:41:14.264Z,8.37
2022-10-19T22:43:42.170Z,8.20
2022-10-19T22:46:10.041Z,7.83
2022-10-19T22:48:39.423Z,8.43
2022-10-19T22:51:07.562Z,8.87
2022-10-19T22:53:35.476Z,7.77
2022-10-19T22:56:03.439Z,7.80
2022-10-19T22:58:31.406Z,7.70
2022-10-19T23:01:10.905Z,8.20
2022-10-19T23:03:40.530Z,8.80
2022-10-19T23:06:09.779Z,7.93
2022-10-19T23:08:37.956Z,7.47
2022-10-19T23:11:06.191Z,7.30
2022-10-19T23:13:34.150Z,8.47
2022-10-19T23:16:02.384Z,8.27
2022-10-19T23:18:31.969Z,8.40
2022-10-19T23:21:03.289Z,7.83
2022-10-19T23:23:32.363Z,7.20
2022-10-19T23:26:02.021Z,7.37
2022-10-19T23:28:31.009Z,7.53
2022-10-19T23:30:59.578Z,8.60
2022-10-19T23:33:27.589Z,8.47
2022-10-19T23:35:55.477Z,8.77
2022-10-19T23:38:24.748Z,7.10
2022-10-19T23:40:52.637Z,8.37
2022-10-19T23:43:20.601Z,11.80
2022-10-19T23:45:48.569Z,9.80
2022-10-19T23:48:16.630Z,12.00
2022-10-19T23:50:44.664Z,12.50
2022-10-19T23:53:12.688Z,38.97
2022-10-19T23:55:42.014Z,61.73
2022-10-19T23:58:10.360Z,38.07
